Time;durP1;ratioP1;P1;durP2;ratioP2;P2;SDS_P1;SDS_P2;PMS_P1;PMS_P2;Temp;Humidity;BMP_temperature;BMP_pressure;BME280_temperature;BME280_humidity;BME280_pressure;Samples;Min_cycle;Max_cycle;Signal;HPM_P1;HPM_P2
2022/07/15 00:00:38;;;;;;;1.50;0.80;;;;;;;27.12;39.20;102059.41;5029410;28;20033;-69
2022/07/15 00:03:04;;;;;;;1.30;0.75;;;;;;;27.12;39.01;102056.72;5029364;28;20064;-70
2022/07/15 00:05:30;;;;;;;1.75;0.80;;;;;;;27.12;38.97;102058.53;5028966;28;20688;-70
2022/07/15 00:07:55;;;;;;;2.45;1.10;;;;;;;27.12;39.09;102059.41;5029409;28;20037;-69
2022/07/15 00:10:21;;;;;;;1.63;0.90;;;;;;;27.11;39.33;102054.97;5029120;28;20035;-70
2022/07/15 00:12:58;;;;;;;1.58;0.98;;;;;;;27.09;39.16;102045.25;5029577;28;20121;-70
2022/07/15 00:15:26;;;;;;;1.50;0.70;;;;;;;27.11;38.93;102046.06;5029589;28;20117;-70
2022/07/15 00:17:52;;;;;;;2.45;0.90;;;;;;;27.08;38.92;102052.41;5029439;28;20035;-70
2022/07/15 00:20:19;;;;;;;1.73;0.80;;;;;;;27.08;38.98;102052.41;5028471;28;20036;-70
2022/07/15 00:22:45;;;;;;;1.75;0.90;;;;;;;27.10;38.85;102050.56;5029147;28;20021;-70
2022/07/15 00:25:11;;;;;;;2.90;1.00;;;;;;;27.08;38.97;102044.38;5028421;28;20048;-70
2022/07/15 00:27:53;;;;;;;1.60;0.80;;;;;;;27.04;39.21;102043.63;5029080;28;20720;-70
2022/07/15 00:30:19;;;;;;;2.05;0.95;;;;;;;27.03;38.99;102052.56;5028683;28;20021;-69
2022/07/15 00:32:45;;;;;;;1.98;0.90;;;;;;;27.04;39.07;102053.44;5028550;28;20381;-69
2022/07/15 00:35:10;;;;;;;1.48;0.70;;;;;;;27.03;39.11;102052.56;5028491;28;20056;-70
2022/07/15 00:37:35;;;;;;;2.25;0.80;;;;;;;27.04;39.11;102053.44;5027727;28;20033;-70
2022/07/15 00:40:01;;;;;;;1.15;0.80;;;;;;;27.04;39.11;102059.69;5029032;28;20453;-70
2022/07/15 00:42:44;;;;;;;1.77;0.80;;;;;;;26.99;39.27;102042.94;5028473;28;20452;-69
2022/07/15 00:45:19;;;;;;;2.38;1.00;;;;;;;26.98;39.28;102049.19;5025936;28;20049;-70
2022/07/15 00:47:49;;;;;;;2.15;0.90;;;;;;;27.00;39.19;102046.47;5029194;28;20029;-70
2022/07/15 00:50:16;;;;;;;2.05;1.00;;;;;;;27.02;39.09;102053.50;5027993;28;20017;-70
2022/07/15 00:52:47;;;;;;;1.70;0.90;;;;;;;26.98;39.02;102051.88;5027387;28;20053;-70
2022/07/15 00:55:13;;;;;;;1.60;0.82;;;;;;;26.98;39.09;102043.84;5028440;28;20033;-69
2022/07/15 00:57:41;;;;;;;1.27;0.80;;;;;;;26.98;38.98;102049.19;5028712;28;20080;-69
2022/07/15 01:00:11;;;;;;;1.83;0.88;;;;;;;27.00;39.23;102039.31;5027604;28;20022;-69
2022/07/15 01:02:38;;;;;;;2.63;0.95;;;;;;;26.98;39.22;102045.66;5027042;28;20038;-70
2022/07/15 01:05:06;;;;;;;1.50;0.90;;;;;;;26.95;39.09;102052.00;5027583;28;20083;-69
2022/07/15 01:07:33;;;;;;;1.10;0.80;;;;;;;26.96;39.22;102053.72;5027918;28;20537;-70
2022/07/15 01:09:58;;;;;;;1.80;0.80;;;;;;;26.98;39.03;102053.69;5028421;28;20101;-70
2022/07/15 01:12:25;;;;;;;1.15;0.80;;;;;;;26.95;39.13;102056.47;5026507;28;20029;-70
2022/07/15 01:14:51;;;;;;;1.98;0.90;;;;;;;26.95;39.16;102049.34;5028532;28;20037;-70
2022/07/15 01:17:16;;;;;;;2.00;0.80;;;;;;;26.96;39.25;102056.41;5028979;28;20078;-69
2022/07/15 01:19:42;;;;;;;1.60;0.88;;;;;;;26.95;39.28;102054.69;5027442;28;20030;-70
2022/07/15 01:22:07;;;;;;;2.20;0.98;;;;;;;26.93;39.26;102055.66;5027842;28;20030;-70
2022/07/15 01:24:33;;;;;;;0.98;0.70;;;;;;;26.93;39.42;102053.84;5028131;28;20040;-69
2022/07/15 01:27:00;;;;;;;2.00;0.90;;;;;;;26.91;39.27;102060.19;5027792;28;20029;-70
2022/07/15 01:29:25;;;;;;;1.52;0.88;;;;;;;26.93;39.24;102063.69;5028509;28;20026;-70
2022/07/15 01:31:51;;;;;;;1.48;0.80;;;;;;;26.91;39.17;102055.69;5027956;28;20049;-70
2022/07/15 01:34:17;;;;;;;1.35;0.80;;;;;;;26.89;39.19;102051.34;5027602;28;20037;-70
2022/07/15 01:36:42;;;;;;;2.50;0.90;;;;;;;26.90;39.25;102053.06;5028388;28;20030;-70
2022/07/15 01:39:08;;;;;;;2.42;0.95;;;;;;;26.90;39.38;102048.59;5027400;28;20120;-70
2022/07/15 01:41:33;;;;;;;2.75;1.00;;;;;;;26.88;39.32;102054.91;5027666;28;20509;-70
2022/07/15 01:43:59;;;;;;;2.28;0.88;;;;;;;26.89;39.18;102056.69;5028408;28;20029;-70
2022/07/15 01:46:24;;;;;;;1.70;0.80;;;;;;;26.88;39.29;102054.91;5028430;28;20040;-69
2022/07/15 01:51:33;;;;;;;;;;;;;;;26.89;39.37;102060.25;5028513;28;20103;-70
2022/07/15 01:53:58;;;;;;;1.87;0.90;;;;;;;26.90;39.15;102061.09;5026539;28;19921;-70
2022/07/15 01:56:24;;;;;;;1.73;0.90;;;;;;;26.88;39.51;102062.94;5028242;28;20534;-69
2022/07/15 01:58:49;;;;;;;1.70;0.93;;;;;;;26.85;39.39;102061.22;5028110;28;20095;-69
2022/07/15 02:01:17;;;;;;;1.85;0.80;;;;;;;26.87;39.37;102066.53;5027775;28;20065;-69
2022/07/15 02:03:43;;;;;;;1.58;0.80;;;;;;;26.86;39.36;102063.00;5026997;28;20030;-69
2022/07/15 02:06:08;;;;;;;1.88;0.93;;;;;;;26.85;39.51;102063.91;5027701;28;20525;-70
2022/07/15 02:08:34;;;;;;;1.35;0.85;;;;;;;26.85;39.38;102060.34;5028282;28;20033;-70
2022/07/15 02:10:59;;;;;;;1.60;0.70;;;;;;;26.85;39.30;102063.91;5027706;28;20033;-69
2022/07/15 02:13:24;;;;;;;1.52;0.82;;;;;;;26.84;39.36;102055.94;5027365;28;20033;-69
2022/07/15 02:15:50;;;;;;;1.63;0.90;;;;;;;26.84;39.55;102054.13;5027199;28;20041;-69
2022/07/15 02:18:15;;;;;;;1.73;0.90;;;;;;;26.80;39.25;102055.19;5026366;28;20129;-69
2022/07/15 02:20:41;;;;;;;2.25;0.80;;;;;;;26.81;39.37;102056.94;5025929;28;20124;-70
2022/07/15 02:23:06;;;;;;;1.58;0.90;;;;;;;26.83;39.24;102056.88;5026744;28;20598;-70
2022/07/15 02:25:34;;;;;;;2.83;0.95;;;;;;;26.81;39.44;102053.38;5026903;28;20112;-70
2022/07/15 02:28:02;;;;;;;2.05;1.00;;;;;;;26.80;39.22;102056.97;5026607;28;20033;-70
2022/07/15 02:30:31;;;;;;;1.75;0.90;;;;;;;26.81;39.46;102056.06;5026960;28;20484;-70
2022/07/15 02:32:57;;;;;;;1.50;0.80;;;;;;;26.79;39.35;102050.75;5026612;28;20040;-70
2022/07/15 02:35:23;;;;;;;2.33;0.80;;;;;;;26.80;39.35;102049.81;5026529;28;20034;-70
2022/07/15 02:37:48;;;;;;;2.97;0.88;;;;;;;26.78;39.26;102048.13;5027087;28;20113;-70
2022/07/15 02:40:14;;;;;;;2.28;0.80;;;;;;;26.77;39.29;102055.31;5026754;28;20026;-70
2022/07/15 02:42:43;;;;;;;1.10;0.70;;;;;;;26.75;39.44;102046.44;5026440;28;20021;-70
2022/07/15 02:45:08;;;;;;;1.83;0.82;;;;;;;26.77;39.38;102051.75;5026901;28;20032;-70
2022/07/15 02:47:34;;;;;;;2.30;0.90;;;;;;;26.79;39.35;102052.56;5026540;28;20025;-70
2022/07/15 02:50:00;;;;;;;1.90;0.90;;;;;;;26.77;39.43;102054.44;5026047;28;20087;-70
2022/07/15 02:52:26;;;;;;;1.73;0.80;;;;;;;26.75;39.47;102057.16;5026237;28;20053;-70
2022/07/15 02:54:51;;;;;;;1.65;0.90;;;;;;;26.76;39.34;102061.56;5026519;28;20610;-70
2022/07/15 02:57:17;;;;;;;1.65;0.88;;;;;;;26.76;39.42;102060.69;5026018;28;20060;-70
2022/07/15 02:59:42;;;;;;;1.63;0.77;;;;;;;26.77;39.30;102065.13;5026360;28;20057;-70
2022/07/15 03:02:07;;;;;;;1.55;0.70;;;;;;;26.76;39.42;102058.91;5025986;28;20037;-70
2022/07/15 03:04:33;;;;;;;1.73;0.85;;;;;;;26.74;39.46;102060.75;5026258;28;20030;-70
2022/07/15 03:06:58;;;;;;;1.73;0.80;;;;;;;26.73;39.39;102063.47;5041289;28;20706;-70
2022/07/15 03:09:23;;;;;;;1.98;0.90;;;;;;;26.72;39.42;102065.25;5026034;28;20108;-70
2022/07/15 03:11:49;;;;;;;1.38;0.70;;;;;;;26.72;39.28;102065.25;5026252;28;20041;-70
2022/07/15 03:14:14;;;;;;;2.05;0.90;;;;;;;26.72;39.42;102067.94;5026702;28;20040;-70
2022/07/15 03:16:39;;;;;;;1.80;0.80;;;;;;;26.72;39.45;102075.09;5025998;28;20552;-70
2022/07/15 03:19:05;;;;;;;1.50;0.80;;;;;;;26.72;39.54;102075.09;5025360;28;20033;-70
2022/07/15 03:21:30;;;;;;;1.15;0.70;;;;;;;26.69;39.41;102080.56;5025582;28;20037;-70
2022/07/15 03:23:55;;;;;;;1.80;0.80;;;;;;;26.70;39.48;102071.63;5026359;28;20418;-70
2022/07/15 03:26:21;;;;;;;1.73;0.80;;;;;;;26.67;39.53;102077.94;5026476;28;20029;-70
2022/07/15 03:28:46;;;;;;;1.35;0.80;;;;;;;26.68;39.47;102077.00;5025922;28;20032;-70
2022/07/15 03:31:12;;;;;;;2.30;0.88;;;;;;;26.69;39.47;102081.44;5026176;28;20083;-70
2022/07/15 03:33:37;;;;;;;1.63;0.73;;;;;;;26.67;39.49;102076.13;5025922;28;20029;-70
2022/07/15 03:36:03;;;;;;;1.50;0.90;;;;;;;26.67;39.30;102085.97;5026036;28;20052;-70
2022/07/15 03:38:28;;;;;;;2.28;0.80;;;;;;;26.67;39.42;102083.28;5026255;28;20094;-70
2022/07/15 03:40:54;;;;;;;2.22;0.90;;;;;;;26.68;39.42;102082.38;5025136;28;20069;-70
2022/07/15 03:43:19;;;;;;;1.77;0.80;;;;;;;26.66;39.32;102081.53;5026244;28;20456;-70
2022/07/15 03:45:45;;;;;;;1.77;0.80;;;;;;;26.65;39.57;102085.16;5026724;28;20466;-69
2022/07/15 03:48:10;;;;;;;2.10;0.80;;;;;;;26.65;39.46;102085.16;5025049;28;20045;-70
2022/07/15 03:50:35;;;;;;;2.35;0.90;;;;;;;26.65;39.37;102087.84;5025594;28;20025;-70
2022/07/15 03:53:01;;;;;;;2.42;1.00;;;;;;;26.65;39.37;102087.84;5025520;28;20123;-70
2022/07/15 03:55:27;;;;;;;1.73;0.80;;;;;;;26.62;39.34;102087.91;5026229;28;20057;-69
2022/07/15 03:57:52;;;;;;;1.48;0.80;;;;;;;26.61;39.43;102084.38;5026572;28;20044;-70
2022/07/15 04:00:18;;;;;;;2.42;0.80;;;;;;;26.63;39.34;102093.22;5026234;28;20033;-70
2022/07/15 04:02:43;;;;;;;2.40;0.90;;;;;;;26.61;39.37;102083.50;5025697;28;20029;-70
2022/07/15 04:05:09;;;;;;;2.10;0.90;;;;;;;26.61;39.31;102100.41;5026101;28;20641;-70
2022/07/15 04:07:34;;;;;;;1.73;0.70;;;;;;;26.60;39.39;102090.63;5026180;28;20037;-70
2022/07/15 04:09:59;;;;;;;2.10;1.00;;;;;;;26.60;39.37;102101.34;5024873;28;20037;-69
2022/07/15 04:12:25;;;;;;;1.98;0.80;;;;;;;26.62;39.36;102106.66;5026036;28;20045;-70
2022/07/15 04:14:50;;;;;;;1.70;0.77;;;;;;;26.60;39.42;102101.34;5025801;28;20135;-69
2022/07/15 04:17:16;;;;;;;1.80;0.90;;;;;;;26.58;39.40;102099.66;5026309;28;20056;-69
2022/07/15 04:19:41;;;;;;;1.20;0.70;;;;;;;26.59;39.40;102104.09;5026221;28;20037;-69
2022/07/15 04:22:06;;;;;;;1.55;0.80;;;;;;;26.60;39.41;102105.81;5024320;28;20172;-69
2022/07/15 04:24:32;;;;;;;1.75;0.80;;;;;;;26.59;39.23;102112.13;5026132;28;20048;-69
2022/07/15 04:26:57;;;;;;;1.40;0.75;;;;;;;26.59;39.25;102109.44;5026362;28;20099;-69
2022/07/15 04:29:23;;;;;;;1.38;0.88;;;;;;;26.56;39.47;102112.22;5029906;28;20087;-69
2022/07/15 04:31:48;;;;;;;3.10;1.00;;;;;;;26.56;39.34;102115.75;5029492;28;20483;-69
2022/07/15 04:34:14;;;;;;;1.67;0.75;;;;;;;26.56;39.43;102122.91;5029243;28;20468;-68
2022/07/15 04:36:39;;;;;;;1.48;0.80;;;;;;;26.55;39.28;102119.34;5029740;28;20065;-69
2022/07/15 04:39:04;;;;;;;1.83;0.80;;;;;;;26.56;39.45;102122.91;5028779;28;20033;-69
2022/07/15 04:41:30;;;;;;;1.63;0.82;;;;;;;26.55;39.34;102130.03;5027781;28;20071;-69
2022/07/15 04:43:55;;;;;;;1.77;0.80;;;;;;;26.54;39.38;102127.41;5028093;28;20596;-69
2022/07/15 04:46:21;;;;;;;2.08;1.08;;;;;;;26.54;39.25;102135.44;5029657;28;20456;-69
2022/07/15 04:51:30;;;;;;;1.48;0.80;;;;;;;26.55;39.30;102137.19;5028586;28;20047;-69
2022/07/15 04:53:55;;;;;;;2.03;0.90;;;;;;;26.55;39.27;102142.53;5027592;28;20045;-69
2022/07/15 04:56:20;;;;;;;3.17;0.90;;;;;;;26.55;39.27;102143.41;5028335;28;20450;-69
2022/07/15 04:58:46;;;;;;;2.13;0.80;;;;;;;26.55;39.20;102140.75;5029078;28;20101;-69
2022/07/15 05:01:12;;;;;;;1.30;0.70;;;;;;;26.56;39.17;102142.50;5028129;28;20650;-69
2022/07/15 05:03:37;;;;;;;1.77;0.80;;;;;;;26.55;39.24;102137.19;5028374;28;20033;-69
2022/07/15 05:06:03;;;;;;;2.10;0.90;;;;;;;26.56;39.15;102146.97;5028801;28;20065;-69
2022/07/15 05:08:29;;;;;;;1.80;0.80;;;;;;;26.55;39.10;102143.41;5027071;28;20045;-69
2022/07/15 05:10:55;;;;;;;1.55;0.80;;;;;;;26.53;39.15;102144.41;5028289;28;20037;-68
2022/07/15 05:13:20;;;;;;;1.73;0.70;;;;;;;26.48;39.25;102146.34;5028839;28;20026;-69
2022/07/15 05:15:46;;;;;;;1.52;0.80;;;;;;;26.50;39.11;102148.06;5028964;28;20037;-69
2022/07/15 05:18:11;;;;;;;1.50;0.80;;;;;;;26.48;39.33;102151.69;5028080;28;20025;-69
2022/07/15 05:20:37;;;;;;;2.60;0.80;;;;;;;26.48;39.24;102151.69;5025844;28;20041;-69
2022/07/15 05:23:03;;;;;;;1.95;0.90;;;;;;;26.48;39.29;102154.38;5028073;28;20045;-69
2022/07/15 05:25:28;;;;;;;1.70;0.80;;;;;;;26.47;39.40;102149.97;5028120;28;20041;-69
2022/07/15 05:27:54;;;;;;;1.48;0.70;;;;;;;26.45;39.33;102152.69;5027937;28;20483;-69
2022/07/15 05:30:19;;;;;;;1.67;0.70;;;;;;;26.45;39.42;102157.16;5028457;28;20071;-69
2022/07/15 05:32:45;;;;;;;1.98;0.80;;;;;;;26.45;39.40;102155.34;5027689;28;20030;-69
2022/07/15 05:35:12;;;;;;;1.30;0.70;;;;;;;26.47;39.32;102174.03;5028062;28;20068;-69
2022/07/15 05:37:39;;;;;;;1.45;0.68;;;;;;;26.46;39.32;102167.81;5028245;28;20033;-68
2022/07/15 05:40:06;;;;;;;1.52;0.68;;;;;;;26.45;39.41;102166.06;5026784;28;20044;-69
2022/07/15 05:42:32;;;;;;;2.13;0.88;;;;;;;26.45;39.32;102158.03;5027658;28;20040;-69
2022/07/15 05:44:57;;;;;;;1.48;0.80;;;;;;;26.47;39.33;102172.22;5028103;28;20042;-69
2022/07/15 05:47:23;;;;;;;1.60;0.70;;;;;;;26.45;39.38;102163.38;5026923;28;20041;-69
2022/07/15 05:49:48;;;;;;;1.55;0.77;;;;;;;26.44;39.54;102166.97;5028169;28;20034;-69
2022/07/15 05:52:13;;;;;;;2.20;0.70;;;;;;;26.47;39.44;102152.63;5026941;28;20103;-69
2022/07/15 05:54:39;;;;;;;1.45;0.77;;;;;;;26.52;39.37;102161.38;5027670;28;20033;-69
2022/07/15 05:57:04;;;;;;;2.40;0.80;;;;;;;26.68;39.00;102154.59;5027640;28;20112;-69
2022/07/15 05:59:30;;;;;;;1.48;0.73;;;;;;;26.66;39.05;102146.59;5027605;28;20030;-69
2022/07/15 06:01:55;;;;;;;1.83;0.80;;;;;;;26.67;38.99;102152.84;5026754;28;20041;-69
2022/07/15 06:04:21;;;;;;;1.02;0.63;;;;;;;26.79;38.61;102152.44;5026551;28;20048;-69
2022/07/15 06:06:47;;;;;;;1.08;0.70;;;;;;;26.88;38.53;102157.50;5026549;28;20068;-69
2022/07/15 06:09:12;;;;;;;1.58;0.70;;;;;;;26.95;38.61;102152.84;5027613;28;20029;-69
2022/07/15 06:11:38;;;;;;;1.02;0.60;;;;;;;26.97;38.21;102150.94;5026868;28;20032;-69
2022/07/15 06:14:03;;;;;;;1.17;0.60;;;;;;;27.08;38.07;102150.59;5027568;28;20480;-69
2022/07/15 06:16:29;;;;;;;1.58;0.70;;;;;;;27.19;38.06;102145.75;5025487;28;20037;-68
2022/07/15 06:18:54;;;;;;;1.30;0.70;;;;;;;27.32;37.92;102147.06;5026730;28;20041;-69
2022/07/15 06:21:20;;;;;;;1.40;0.60;;;;;;;27.36;37.73;102144.19;5027152;28;20044;-69
2022/07/15 06:23:45;;;;;;;1.25;0.60;;;;;;;27.36;37.64;102141.53;5027646;28;20384;-69
2022/07/15 06:26:10;;;;;;;2.45;0.77;;;;;;;27.42;37.82;102148.44;5027415;28;20071;-69
2022/07/15 06:28:36;;;;;;;1.23;0.80;;;;;;;27.43;37.71;102160.91;5026626;28;20029;-69
2022/07/15 06:31:01;;;;;;;1.52;0.70;;;;;;;27.40;37.60;102147.63;5026649;28;20037;-69
2022/07/15 06:33:27;;;;;;;1.42;0.70;;;;;;;27.38;37.57;102146.81;5025720;28;20032;-69
2022/07/15 06:35:53;;;;;;;1.58;0.77;;;;;;;27.37;37.81;102151.31;5026113;28;20029;-69
2022/07/15 06:38:18;;;;;;;1.40;0.65;;;;;;;27.37;37.80;102148.63;5026564;28;20032;-69
2022/07/15 06:40:44;;;;;;;1.10;0.70;;;;;;;27.35;37.99;102152.28;5026735;28;20128;-69
2022/07/15 06:43:10;;;;;;;0.90;0.60;;;;;;;27.35;37.83;102150.47;5026867;28;20033;-69
2022/07/15 06:45:36;;;;;;;1.42;0.60;;;;;;;27.34;38.05;102147.84;5027061;28;20027;-69
2022/07/15 06:48:01;;;;;;;1.52;0.73;;;;;;;27.29;38.17;102152.50;5025963;28;20033;-69
2022/07/15 06:50:27;;;;;;;1.48;0.80;;;;;;;27.27;38.26;102146.31;5023051;28;20029;-69
2022/07/15 06:52:52;;;;;;;2.20;0.70;;;;;;;27.29;38.12;102153.38;5026832;28;20060;-69
2022/07/15 06:55:17;;;;;;;1.33;0.60;;;;;;;27.25;38.31;102145.50;5026934;28;20459;-69
2022/07/15 06:57:43;;;;;;;1.30;0.65;;;;;;;27.28;38.40;102140.91;5025110;28;20025;-69
2022/07/15 07:00:11;;;;;;;2.03;0.70;;;;;;;27.27;38.24;102143.63;5026711;28;20514;-69
2022/07/15 07:02:37;;;;;;;1.52;0.70;;;;;;;27.25;38.39;102141.03;5025846;28;20044;-70
2022/07/15 07:05:04;;;;;;;1.40;0.73;;;;;;;27.25;38.35;102148.19;5026733;28;20065;-69
2022/07/15 07:07:30;;;;;;;1.52;0.65;;;;;;;27.23;38.53;102155.41;5026341;28;20390;-69
2022/07/15 07:09:55;;;;;;;0.80;0.60;;;;;;;27.26;38.35;102153.50;5026771;28;20053;-69
2022/07/15 07:12:20;;;;;;;1.10;0.60;;;;;;;27.33;38.50;102154.13;5025879;28;20136;-69
2022/07/15 07:14:46;;;;;;;0.65;0.50;;;;;;;27.33;38.55;102160.34;5026884;28;20113;-69
2022/07/15 07:17:11;;;;;;;0.93;0.60;;;;;;;27.37;38.44;102159.34;5024776;28;20037;-69
2022/07/15 07:19:37;;;;;;;1.63;0.63;;;;;;;27.45;38.36;102159.91;5026169;28;20022;-70
2022/07/15 07:22:04;;;;;;;1.55;0.70;;;;;;;27.48;38.32;102158.94;5024655;28;20414;-70
2022/07/15 07:24:29;;;;;;;2.15;0.68;;;;;;;27.50;38.01;102154.41;5026524;28;20361;-69
2022/07/15 07:26:54;;;;;;;1.60;0.70;;;;;;;27.54;37.93;102157.88;5025634;28;20095;-69
2022/07/15 07:29:22;;;;;;;1.65;0.60;;;;;;;27.54;38.15;102165.91;5026506;28;20093;-69
2022/07/15 07:31:49;;;;;;;0.50;0.40;;;;;;;27.56;37.90;102166.75;5024142;28;20033;-70
2022/07/15 07:34:15;;;;;;;1.52;0.70;;;;;;;27.58;38.08;102162.19;5026021;28;20033;-70
2022/07/15 07:36:40;;;;;;;0.80;0.50;;;;;;;27.60;37.87;102157.66;5026443;28;20025;-69
2022/07/15 07:39:06;;;;;;;0.82;0.50;;;;;;;27.60;37.97;102160.31;5025909;28;20037;-70
2022/07/15 07:41:31;;;;;;;0.98;0.52;;;;;;;27.60;38.20;102154.97;5025169;28;20025;-70
2022/07/15 07:43:56;;;;;;;0.80;0.50;;;;;;;27.63;37.76;102162.91;5024192;28;20045;-69
2022/07/15 07:46:22;;;;;;;0.88;0.60;;;;;;;27.62;38.04;102154.00;5026280;28;20075;-69
2022/07/15 07:48:48;;;;;;;0.73;0.52;;;;;;;27.62;38.21;102151.31;5026107;28;20124;-69
2022/07/15 07:51:14;;;;;;;1.38;0.70;;;;;;;27.64;37.93;102137.84;5025465;28;20116;-69
2022/07/15 07:53:40;;;;;;;1.00;0.55;;;;;;;27.63;37.99;102144.16;5026084;28;20431;-70
2022/07/15 07:56:06;;;;;;;1.27;0.65;;;;;;;27.61;37.92;102149.56;5025481;28;20063;-70
2022/07/15 07:58:31;;;;;;;1.45;0.60;;;;;;;27.64;38.04;102137.84;5025142;28;20029;-69
2022/07/15 08:00:56;;;;;;;1.75;0.60;;;;;;;27.64;38.04;102141.38;5025501;28;20038;-70
2022/07/15 08:03:22;;;;;;;0.80;0.50;;;;;;;27.65;38.00;102140.47;5029173;28;20075;-70
2022/07/15 08:05:47;;;;;;;0.90;0.60;;;;;;;27.64;38.06;102144.06;5029264;28;20037;-69
2022/07/15 08:08:16;;;;;;;0.85;0.55;;;;;;;27.66;38.23;102146.69;5029817;28;20026;-69
2022/07/15 08:10:49;;;;;;;1.00;0.50;;;;;;;27.63;38.10;102155.72;5029288;28;20036;-70
2022/07/15 08:13:16;;;;;;;0.95;0.50;;;;;;;27.62;38.02;102154.00;5029389;28;20377;-70
2022/07/15 08:15:42;;;;;;;0.98;0.50;;;;;;;27.61;38.13;102154.03;5029368;28;20034;-69
2022/07/15 08:18:08;;;;;;;1.48;0.65;;;;;;;27.58;38.43;102152.34;5029943;28;20471;-70
2022/07/15 08:20:33;;;;;;;1.00;0.55;;;;;;;27.55;38.32;102141.75;5029121;28;20033;-70
2022/07/15 08:22:59;;;;;;;1.27;0.60;;;;;;;27.54;38.20;102137.31;5029849;28;20546;-70
2022/07/15 08:25:26;;;;;;;1.73;0.60;;;;;;;27.55;38.36;102147.09;5029026;28;20034;-69
2022/07/15 08:27:52;;;;;;;1.67;0.70;;;;;;;27.57;38.28;102144.38;5029694;28;20064;-70
2022/07/15 08:30:17;;;;;;;0.63;0.47;;;;;;;27.59;38.63;102153.22;5027825;28;20112;-70
2022/07/15 08:32:43;;;;;;;0.73;0.50;;;;;;;27.58;38.19;102149.66;5029072;28;20120;-69
2022/07/15 08:35:08;;;;;;;0.82;0.47;;;;;;;27.57;38.31;102147.91;5029362;28;20041;-70
2022/07/15 08:37:33;;;;;;;0.93;0.50;;;;;;;27.55;38.47;102146.22;5028207;28;20499;-69
2022/07/15 08:39:59;;;;;;;0.85;0.52;;;;;;;27.52;38.23;102141.84;5029381;28;20123;-69
2022/07/15 08:42:24;;;;;;;1.30;0.50;;;;;;;27.53;38.52;102142.72;5029173;28;20029;-70
2022/07/15 08:44:52;;;;;;;1.30;0.50;;;;;;;27.51;38.50;102145.44;5028213;28;20033;-70
2022/07/15 08:47:17;;;;;;;2.00;0.50;;;;;;;27.55;38.20;102152.47;5028851;28;20034;-70
2022/07/15 08:49:45;;;;;;;1.25;0.50;;;;;;;27.54;38.39;102149.84;5028564;28;20087;-70
2022/07/15 08:52:13;;;;;;;0.95;0.50;;;;;;;27.57;38.37;102150.59;5027831;28;20065;-70
2022/07/15 08:54:39;;;;;;;1.20;0.60;;;;;;;27.61;38.06;102154.03;5028168;28;20026;-70
2022/07/15 08:57:04;;;;;;;1.02;0.50;;;;;;;27.60;38.20;102150.47;5028756;28;20036;-70
2022/07/15 08:59:30;;;;;;;0.90;0.47;;;;;;;27.63;38.41;102141.47;5028908;28;20471;-70
2022/07/15 09:01:56;;;;;;;0.63;0.50;;;;;;;27.64;38.12;102148.56;5028123;28;20033;-70
2022/07/15 09:04:21;;;;;;;0.82;0.40;;;;;;;27.65;38.21;102139.59;5028720;28;20108;-70
2022/07/15 09:06:49;;;;;;;0.73;0.50;;;;;;;27.65;38.10;102137.78;5028268;28;20045;-70
2022/07/15 09:09:32;;;;;;;1.30;0.50;;;;;;;27.66;38.05;102130.63;5028609;28;20458;-70
2022/07/15 09:12:05;;;;;;;1.05;0.47;;;;;;;27.65;38.41;102136.91;5028741;28;20531;-70
2022/07/15 09:14:33;;;;;;;0.90;0.50;;;;;;;27.65;38.11;102132.44;5027349;28;20026;-69
2022/07/15 09:17:17;;;;;;;1.08;0.50;;;;;;;27.65;38.41;102131.53;5028497;28;20045;-69
2022/07/15 09:20:07;;;;;;;0.95;0.60;;;;;;;27.60;38.36;102144.25;5028546;28;20029;-70
2022/07/15 09:22:57;;;;;;;1.17;0.55;;;;;;;27.59;38.42;102143.38;5028325;28;20058;-69
2022/07/15 09:25:23;;;;;;;0.75;0.50;;;;;;;27.58;38.54;102149.66;5026505;28;20041;-70
2022/07/15 09:27:49;;;;;;;0.57;0.40;;;;;;;27.57;38.57;102147.91;5028270;28;20492;-70
2022/07/15 09:36:12;;;;;;;1.15;0.60;;;;;;;27.53;38.29;102148.97;5028752;28;20155;-70
2022/07/15 09:38:42;;;;;;;0.70;0.45;;;;;;;27.53;38.29;102153.44;5027963;28;20123;-70
2022/07/15 09:41:10;;;;;;;0.95;0.50;;;;;;;27.54;38.42;102152.50;5026722;28;20412;-70
2022/07/15 09:43:51;;;;;;;1.05;0.50;;;;;;;27.54;38.26;102150.72;5028273;28;20025;-70
2022/07/15 09:46:19;;;;;;;0.73;0.40;;;;;;;27.57;38.40;102147.06;5027719;28;20033;-70
2022/07/15 09:48:46;;;;;;;0.43;0.40;;;;;;;27.57;38.22;102147.91;5027440;28;20033;-70
2022/07/15 09:51:12;;;;;;;0.73;0.40;;;;;;;27.56;38.17;102146.19;5025557;28;20033;-71
2022/07/15 09:53:40;;;;;;;0.77;0.50;;;;;;;27.57;38.52;102147.91;5027922;28;20088;-70
2022/07/15 09:56:09;;;;;;;0.90;0.45;;;;;;;27.56;38.29;102143.50;5028046;28;20108;-70
2022/07/15 09:58:37;;;;;;;0.50;0.40;;;;;;;27.54;38.45;102141.81;5026713;28;20471;-70
2022/07/15 10:01:03;;;;;;;0.93;0.55;;;;;;;27.56;38.16;102148.88;5027051;28;20108;-70
2022/07/15 10:03:28;;;;;;;0.80;0.40;;;;;;;27.56;38.05;102138.16;5027902;28;20239;-70
2022/07/15 10:05:54;;;;;;;0.60;0.50;;;;;;;27.53;38.52;102142.72;5027047;28;20029;-70
2022/07/15 10:08:21;;;;;;;1.13;0.57;;;;;;;27.54;38.47;102139.13;5026224;28;20028;-70
2022/07/15 10:10:49;;;;;;;0.98;0.50;;;;;;;27.55;38.15;102135.50;5027108;28;20357;-70
2022/07/15 10:13:14;;;;;;;0.70;0.50;;;;;;;27.53;38.33;102124.84;5027534;28;20155;-71
2022/07/15 10:16:14;;;;;;;0.68;0.40;;;;;;;27.54;38.01;102123.94;5027181;28;20060;-70
2022/07/15 10:19:07;;;;;;;0.80;0.45;;;;;;;27.54;38.27;102133.75;5027303;28;20045;-70
2022/07/15 10:21:35;;;;;;;0.80;0.43;;;;;;;27.53;38.40;102129.34;5026708;28;20033;-70
2022/07/15 10:24:04;;;;;;;0.65;0.40;;;;;;;27.54;38.40;102129.28;5027018;28;20057;-70
2022/07/15 10:27:08;;;;;;;0.68;0.40;;;;;;;27.49;38.18;102128.56;5026541;28;20075;-70
2022/07/15 10:29:34;;;;;;;0.45;0.40;;;;;;;27.52;38.05;102133.81;5008607;28;20040;-70
2022/07/15 10:32:00;;;;;;;0.60;0.40;;;;;;;27.50;38.43;102132.97;5026343;28;20812;-70
2022/07/15 10:34:31;;;;;;;0.75;0.47;;;;;;;27.50;38.34;102127.63;5026589;28;20025;-70
2022/07/15 10:36:59;;;;;;;0.60;0.40;;;;;;;27.51;38.16;102139.22;5026620;28;20029;-70
2022/07/15 10:39:48;;;;;;;0.63;0.38;;;;;;;27.49;38.50;102127.69;5026354;28;20048;-70
2022/07/15 10:42:15;;;;;;;0.60;0.43;;;;;;;27.50;38.19;102127.63;5023782;28;20091;-70
2022/07/15 10:44:58;;;;;;;0.70;0.50;;;;;;;27.49;38.33;102115.16;5026944;28;20040;-70
2022/07/15 10:47:24;;;;;;;0.57;0.40;;;;;;;27.49;38.42;102112.47;5025391;28;20033;-70
2022/07/15 10:49:50;;;;;;;2.05;0.40;;;;;;;27.52;38.43;102108.81;5026726;28;20071;-70
2022/07/15 10:52:24;;;;;;;0.77;0.50;;;;;;;27.50;38.26;102106.19;5025779;28;20038;-70
2022/07/15 10:54:55;;;;;;;1.40;0.38;;;;;;;27.54;38.32;102113.22;5026419;28;20483;-70
2022/07/15 10:57:41;;;;;;;0.93;0.50;;;;;;;27.55;38.08;102114.09;5026730;28;20136;-70
2022/07/15 11:00:32;;;;;;;0.60;0.40;;;;;;;27.55;38.26;102120.31;5026494;28;20430;-70
2022/07/15 11:03:14;;;;;;;1.00;0.60;;;;;;;27.57;38.29;102114.91;5026548;28;20029;-70
2022/07/15 11:05:48;;;;;;;0.60;0.40;;;;;;;27.53;38.43;102114.13;5027022;28;20033;-70
2022/07/15 11:08:36;;;;;;;0.45;0.40;;;;;;;27.51;38.31;102109.75;5025200;28;20116;-70
2022/07/15 11:11:13;;;;;;;0.68;0.40;;;;;;;27.53;38.31;102111.47;5025176;28;20037;-70
2022/07/15 11:13:40;;;;;;;0.60;0.40;;;;;;;27.54;38.36;102115.00;5026626;28;20064;-70
2022/07/15 11:16:09;;;;;;;0.73;0.40;;;;;;;27.51;38.22;102107.94;5026036;28;20025;-70
2022/07/15 11:18:49;;;;;;;0.98;0.50;;;;;;;27.50;38.26;102110.69;5026709;28;20033;-70
2022/07/15 11:21:16;;;;;;;0.50;0.40;;;;;;;27.56;38.07;102107.81;5025014;28;20492;-70
2022/07/15 11:23:45;;;;;;;0.55;0.40;;;;;;;27.57;38.30;102106.88;5026369;28;20051;-70
2022/07/15 11:26:11;;;;;;;0.75;0.40;;;;;;;27.57;38.20;102097.00;5026694;28;20049;-70
2022/07/15 11:28:36;;;;;;;0.80;0.40;;;;;;;27.57;38.21;102097.00;5026588;28;20041;-70
2022/07/15 11:31:02;;;;;;;0.98;0.50;;;;;;;27.58;38.28;102092.53;5024273;28;20029;-70
2022/07/15 11:33:29;;;;;;;1.83;0.55;;;;;;;27.56;38.22;102095.28;5024811;28;20040;-70
2022/07/15 11:36:00;;;;;;;0.60;0.40;;;;;;;27.53;38.25;102100.75;5026347;28;20384;-70